createdAt,value
2023-03-07T00:02:01.117Z,6.23
2023-03-07T00:04:28.451Z,4.70
2023-03-07T00:06:56.197Z,8.70
2023-03-07T00:09:22.906Z,5.43
2023-03-07T00:11:50.877Z,4.23
2023-03-07T00:14:17.833Z,3.13
2023-03-07T00:16:45.025Z,5.20
2023-03-07T00:19:11.690Z,4.27
2023-03-07T00:21:38.397Z,6.40
2023-03-07T00:24:05.494Z,5.53
2023-03-07T00:26:32.573Z,5.50
2023-03-07T00:28:59.257Z,7.10
2023-03-07T00:31:26.011Z,8.37
2023-03-07T00:33:53.214Z,9.43
2023-03-07T00:36:22.045Z,5.83
2023-03-07T00:38:49.762Z,5.43
2023-03-07T00:41:22.292Z,8.87
2023-03-07T00:43:50.290Z,9.93
2023-03-07T00:46:18.886Z,7.27
2023-03-07T00:48:45.646Z,9.00
2023-03-07T00:51:14.801Z,9.53
2023-03-07T00:53:41.897Z,7.10
2023-03-07T00:56:21.720Z,8.90
2023-03-07T00:58:48.848Z,11.80
2023-03-07T01:01:18.304Z,8.90
2023-03-07T01:03:45.621Z,12.17
2023-03-07T01:06:15.086Z,12.50
2023-03-07T01:08:42.074Z,14.17
2023-03-07T01:11:09.217Z,10.23
2023-03-07T01:13:39.132Z,15.47
2023-03-07T01:16:20.033Z,13.40
2023-03-07T01:18:54.644Z,14.10
2023-03-07T01:21:27.222Z,21.90
2023-03-07T01:23:55.373Z,17.87
2023-03-07T01:26:30.724Z,13.97
2023-03-07T01:29:00.629Z,15.13
2023-03-07T01:31:30.184Z,14.40
2023-03-07T01:33:56.973Z,16.83
2023-03-07T01:36:30.365Z,13.50
2023-03-07T01:39:10.369Z,14.97
2023-03-07T01:41:40.355Z,15.30
2023-03-07T01:44:21.098Z,12.67
2023-03-07T01:46:55.707Z,16.30
2023-03-07T01:49:37.407Z,15.70
2023-03-07T01:52:07.852Z,16.03
2023-03-07T01:54:40.744Z,24.83
2023-03-07T01:57:08.078Z,13.67
2023-03-07T01:59:39.116Z,14.03
2023-03-07T02:02:12.591Z,14.13
2023-03-07T02:04:42.883Z,15.50
2023-03-07T02:07:10.507Z,14.60
2023-03-07T02:09:38.923Z,14.00
2023-03-07T02:12:06.696Z,16.20
2023-03-07T02:14:33.693Z,13.83
2023-03-07T02:17:01.611Z,17.03
2023-03-07T02:19:56.766Z,16.57
2023-03-07T02:22:24.058Z,12.77
2023-03-07T02:24:59.312Z,13.93
2023-03-07T02:27:27.777Z,16.93
2023-03-07T02:29:54.458Z,17.90
2023-03-07T02:32:21.452Z,13.60
2023-03-07T02:34:48.146Z,17.47
2023-03-07T02:37:21.895Z,13.80
2023-03-07T02:39:49.607Z,16.53
2023-03-07T02:42:22.161Z,15.53
2023-03-07T02:45:01.673Z,16.03
2023-03-07T02:47:32.253Z,14.30
2023-03-07T02:49:59.595Z,17.20
2023-03-07T02:52:28.676Z,16.43
2023-03-07T02:54:56.292Z,20.97
2023-03-07T02:57:25.234Z,14.60
2023-03-07T02:59:52.394Z,11.53
2023-03-07T03:02:19.387Z,19.80
2023-03-07T03:04:46.517Z,14.93
2023-03-07T03:07:13.806Z,13.60
2023-03-07T03:09:40.540Z,14.77
2023-03-07T03:12:07.566Z,16.37
2023-03-07T03:14:35.507Z,16.57
2023-03-07T03:17:02.225Z,20.80
2023-03-07T03:19:29.818Z,16.60
2023-03-07T03:21:57.245Z,19.67
2023-03-07T03:24:25.494Z,19.90
2023-03-07T03:26:56.727Z,19.47
2023-03-07T03:29:25.628Z,16.53
2023-03-07T03:31:55.088Z,15.00
2023-03-07T03:34:22.556Z,17.60
2023-03-07T03:36:51.124Z,16.23
2023-03-07T03:39:18.431Z,22.00
2023-03-07T03:41:49.641Z,16.60
2023-03-07T03:44:17.746Z,16.97
2023-03-07T03:46:44.552Z,14.13
2023-03-07T03:49:16.778Z,14.40
2023-03-07T03:51:46.906Z,16.80
2023-03-07T03:54:13.716Z,18.27
2023-03-07T03:56:40.745Z,16.83
2023-03-07T03:59:07.899Z,19.53
2023-03-07T04:01:34.813Z,17.60
2023-03-07T04:04:01.803Z,14.17
2023-03-07T04:06:30.656Z,17.50
2023-03-07T04:08:58.247Z,13.43
2023-03-07T04:11:25.632Z,14.20
2023-03-07T04:13:53.171Z,16.90
2023-03-07T04:16:22.500Z,14.87
2023-03-07T04:18:50.986Z,15.17
2023-03-07T04:21:18.307Z,16.50
2023-03-07T04:23:45.456Z,21.27
2023-03-07T04:26:12.585Z,14.07
2023-03-07T04:28:46.223Z,14.33
2023-03-07T04:31:19.736Z,13.47
2023-03-07T04:33:48.613Z,17.40
2023-03-07T04:36:16.664Z,17.30
2023-03-07T04:38:43.779Z,16.13
2023-03-07T04:41:13.975Z,20.00
2023-03-07T04:43:41.277Z,12.97
2023-03-07T04:46:09.100Z,15.97
2023-03-07T04:48:35.915Z,12.77
2023-03-07T04:51:02.748Z,16.53
2023-03-07T04:53:29.639Z,15.63
2023-03-07T04:56:01.667Z,14.07
2023-03-07T04:58:30.936Z,18.10
2023-03-07T05:00:58.256Z,15.17
2023-03-07T05:03:28.299Z,20.97
2023-03-07T05:05:55.414Z,13.73
2023-03-07T05:08:22.660Z,14.30
2023-03-07T05:10:50.025Z,13.57
2023-03-07T05:13:16.953Z,11.67
2023-03-07T05:15:43.767Z,14.53
2023-03-07T05:18:10.451Z,15.73
2023-03-07T05:20:38.005Z,13.43
2023-03-07T05:23:04.863Z,14.70
2023-03-07T05:25:31.767Z,13.13
2023-03-07T05:27:58.536Z,13.90
2023-03-07T05:30:25.270Z,15.00
2023-03-07T05:32:52.052Z,15.17
2023-03-07T05:35:19.136Z,13.60
2023-03-07T05:37:46.785Z,15.37
2023-03-07T05:40:14.183Z,13.17
2023-03-07T05:42:45.548Z,20.07
2023-03-07T05:45:13.092Z,14.87
2023-03-07T05:47:40.650Z,17.07
2023-03-07T05:50:10.137Z,14.20
2023-03-07T05:52:37.723Z,11.80
2023-03-07T05:55:04.761Z,13.43
2023-03-07T05:57:32.667Z,11.53
2023-03-07T05:59:59.512Z,17.07
2023-03-07T06:02:27.326Z,12.20
2023-03-07T06:04:54.048Z,15.53
2023-03-07T06:07:20.878Z,12.13
2023-03-07T06:09:47.671Z,10.57
2023-03-07T06:12:17.686Z,12.87
2023-03-07T06:14:44.899Z,16.17
2023-03-07T06:17:11.579Z,13.63
2023-03-07T06:19:38.516Z,14.73
2023-03-07T06:22:05.277Z,14.13
2023-03-07T06:24:32.247Z,11.53
2023-03-07T06:26:59.705Z,12.30
2023-03-07T06:29:26.849Z,13.37
2023-03-07T06:31:54.190Z,15.30
2023-03-07T06:34:21.057Z,11.37
2023-03-07T06:36:48.863Z,13.00
2023-03-07T06:39:21.546Z,12.50
2023-03-07T06:41:51.765Z,17.63
2023-03-07T06:44:18.777Z,13.27
2023-03-07T06:46:45.975Z,14.83
2023-03-07T06:49:15.952Z,15.90
2023-03-07T06:51:46.236Z,11.80
2023-03-07T06:54:13.147Z,16.83
2023-03-07T06:56:40.161Z,11.87
2023-03-07T06:59:07.398Z,14.40
2023-03-07T07:01:35.788Z,11.60
2023-03-07T07:04:04.561Z,12.97
2023-03-07T07:06:31.559Z,14.57
2023-03-07T07:08:59.145Z,13.57
2023-03-07T07:11:29.955Z,13.33
2023-03-07T07:13:59.913Z,17.70
2023-03-07T07:16:26.820Z,13.80
2023-03-07T07:18:53.742Z,13.47
2023-03-07T07:21:21.609Z,16.27
2023-03-07T07:23:48.954Z,15.43
2023-03-07T07:26:15.813Z,13.80
2023-03-07T07:28:42.849Z,13.73
2023-03-07T07:31:12.191Z,14.87
2023-03-07T07:33:39.231Z,15.73
2023-03-07T07:36:07.628Z,14.93
2023-03-07T07:38:35.965Z,20.67
2023-03-07T07:41:02.671Z,15.90
2023-03-07T07:43:29.605Z,18.87
2023-03-07T07:46:18.845Z,16.07
2023-03-07T07:48:49.199Z,17.53
2023-03-07T07:51:16.982Z,19.83
2023-03-07T07:53:44.125Z,15.67
2023-03-07T07:56:11.079Z,15.00
2023-03-07T07:58:38.248Z,20.33
2023-03-07T08:01:19.422Z,18.53
2023-03-07T08:03:46.420Z,13.23
2023-03-07T08:06:20.037Z,11.93
2023-03-07T08:08:48.206Z,19.43
2023-03-07T08:11:16.087Z,15.60
2023-03-07T08:13:43.145Z,15.53
2023-03-07T08:16:15.209Z,12.27
2023-03-07T08:18:56.053Z,13.03
2023-03-07T08:21:23.750Z,12.00
2023-03-07T08:23:50.510Z,12.43
2023-03-07T08:26:17.767Z,14.30
2023-03-07T08:28:44.572Z,14.80
2023-03-07T08:31:14.086Z,14.63
2023-03-07T08:33:41.359Z,16.37
2023-03-07T08:36:08.478Z,11.83
2023-03-07T08:38:35.581Z,12.27
2023-03-07T08:41:04.791Z,11.50
2023-03-07T08:43:33.781Z,9.67
2023-03-07T08:46:00.647Z,10.60
2023-03-07T08:48:27.883Z,11.60
2023-03-07T08:50:55.341Z,9.37
2023-03-07T08:53:22.243Z,10.57
2023-03-07T08:55:49.104Z,9.40
2023-03-07T08:58:15.905Z,11.30
2023-03-07T09:00:42.663Z,14.13
2023-03-07T09:03:09.423Z,8.70
2023-03-07T09:05:39.288Z,16.03
2023-03-07T09:08:07.433Z,8.70
2023-03-07T09:10:34.928Z,12.70
2023-03-07T09:13:01.826Z,10.43
2023-03-07T09:15:28.547Z,15.43
2023-03-07T09:17:55.629Z,11.90
2023-03-07T09:20:22.518Z,13.50
2023-03-07T09:22:51.669Z,11.50
2023-03-07T09:25:19.149Z,9.63
2023-03-07T09:27:46.006Z,11.77
2023-03-07T09:30:13.794Z,8.57
2023-03-07T09:32:40.660Z,10.17
2023-03-07T09:35:07.970Z,11.00
2023-03-07T09:37:34.922Z,13.07
2023-03-07T09:40:01.876Z,9.53
2023-03-07T09:42:35.589Z,8.63
2023-03-07T09:45:28.703Z,9.23
2023-03-07T09:48:41.099Z,10.73
2023-03-07T09:51:19.096Z,8.87
2023-03-07T09:54:01.004Z,8.57
2023-03-07T09:56:37.679Z,9.20
2023-03-07T09:59:36.786Z,9.53
2023-03-07T10:02:28.707Z,8.67
2023-03-07T10:05:33.114Z,8.83
2023-03-07T10:08:01.519Z,9.50
2023-03-07T10:10:40.382Z,8.27
2023-03-07T10:13:48.696Z,9.13
2023-03-07T10:16:33.242Z,8.57
2023-03-07T10:19:15.362Z,8.83
2023-03-07T10:21:54.552Z,10.30
2023-03-07T10:25:06.465Z,7.23
2023-03-07T10:27:33.747Z,7.90
2023-03-07T10:30:02.622Z,9.30
2023-03-07T10:32:40.581Z,3.77
2023-03-07T10:35:07.227Z,4.63
2023-03-07T10:37:58.752Z,5.47
2023-03-07T10:40:48.874Z,3.43
2023-03-07T10:43:28.499Z,2.97
2023-03-07T10:46:27.343Z,2.73
2023-03-07T10:49:03.191Z,3.07
2023-03-07T10:51:51.125Z,2.43
2023-03-07T10:54:22.952Z,2.03
2023-03-07T10:57:10.982Z,2.40
2023-03-07T10:59:40.116Z,3.37
2023-03-07T11:02:41.442Z,2.43
2023-03-07T11:05:26.975Z,2.63
2023-03-07T11:07:54.532Z,2.80
2023-03-07T11:10:40.229Z,2.63
2023-03-07T11:13:19.240Z,4.30
2023-03-07T11:15:46.723Z,4.93
2023-03-07T11:18:26.469Z,3.90
2023-03-07T11:20:53.262Z,3.10
2023-03-07T11:23:26.335Z,3.93
2023-03-07T11:25:55.337Z,4.47
2023-03-07T11:28:33.441Z,3.27
2023-03-07T11:31:23.255Z,4.83
2023-03-07T11:33:58.971Z,1.73
2023-03-07T11:36:29.867Z,3.83
2023-03-07T11:39:17.348Z,2.00
2023-03-07T11:41:48.640Z,2.43
2023-03-07T11:44:36.108Z,1.83
2023-03-07T11:47:27.624Z,1.50
2023-03-07T11:50:12.945Z,3.20
2023-03-07T11:52:53.016Z,2.10
2023-03-07T11:55:25.212Z,1.67
2023-03-07T11:58:11.044Z,2.47
2023-03-07T12:00:46.635Z,7.13
2023-03-07T12:03:23.991Z,1.77
2023-03-07T12:06:12.078Z,2.33
2023-03-07T12:08:55.826Z,2.90
2023-03-07T12:11:22.473Z,3.13
2023-03-07T12:13:54.666Z,2.10
2023-03-07T12:16:27.714Z,3.20
2023-03-07T12:19:12.856Z,1.87
2023-03-07T12:22:04.481Z,3.57
2023-03-07T12:24:38.776Z,2.00
2023-03-07T12:27:19.056Z,4.27
2023-03-07T12:29:55.427Z,5.47
2023-03-07T12:32:27.152Z,4.57
2023-03-07T12:34:58.466Z,2.00
2023-03-07T12:37:37.398Z,2.60
2023-03-07T12:40:18.050Z,4.07
2023-03-07T12:43:11.000Z,2.60
2023-03-07T12:45:45.852Z,5.30
2023-03-07T12:48:21.443Z,2.43
2023-03-07T12:51:00.321Z,3.50
2023-03-07T12:53:32.926Z,3.17
2023-03-07T12:56:05.509Z,4.33
2023-03-07T12:58:40.425Z,3.77
2023-03-07T13:01:14.398Z,3.03
2023-03-07T13:04:05.808Z,3.70
2023-03-07T13:06:33.632Z,3.87
2023-03-07T13:09:01.794Z,2.80
2023-03-07T13:11:31.071Z,2.90
2023-03-07T13:14:02.415Z,3.30
2023-03-07T13:16:40.969Z,2.43
2023-03-07T13:19:35.788Z,2.87
2023-03-07T13:22:14.923Z,3.20
2023-03-07T13:24:43.119Z,3.40
2023-03-07T13:27:15.959Z,4.07
2023-03-07T13:30:14.732Z,9.03
2023-03-07T13:32:56.634Z,8.50
2023-03-07T13:35:29.311Z,9.57
2023-03-07T13:37:59.225Z,9.37
2023-03-07T13:40:29.132Z,9.23
2023-03-07T13:42:56.643Z,7.73
2023-03-07T13:45:38.786Z,8.20
2023-03-07T13:48:10.296Z,8.50
2023-03-07T13:50:39.009Z,7.93
2023-03-07T13:53:14.835Z,7.07
2023-03-07T13:55:46.569Z,6.17
2023-03-07T13:58:45.925Z,8.77
2023-03-07T14:01:16.846Z,5.60
2023-03-07T14:03:50.699Z,4.43
2023-03-07T14:06:20.679Z,3.77
2023-03-07T14:08:48.969Z,4.03
2023-03-07T14:11:23.245Z,6.33
2023-03-07T14:13:53.128Z,4.20
2023-03-07T14:16:29.292Z,6.10
2023-03-07T14:19:20.616Z,3.63
2023-03-07T14:21:59.115Z,4.27
2023-03-07T14:24:42.676Z,6.93
2023-03-07T14:27:14.945Z,4.43
2023-03-07T14:29:53.942Z,4.27
2023-03-07T14:32:23.414Z,5.17
2023-03-07T14:34:53.294Z,5.20
2023-03-07T14:37:29.034Z,4.30
2023-03-07T14:39:58.955Z,4.10
2023-03-07T14:42:34.899Z,3.47
2023-03-07T14:45:28.664Z,4.50
2023-03-07T14:48:33.951Z,3.83
2023-03-07T14:51:18.152Z,3.47
2023-03-07T14:53:45.017Z,4.77
2023-03-07T14:56:20.865Z,2.60
2023-03-07T14:58:55.204Z,3.77
2023-03-07T15:01:31.592Z,3.20
2023-03-07T15:07:05.397Z,3.20
2023-03-07T15:09:33.740Z,4.20
2023-03-07T15:12:12.667Z,6.33
2023-03-07T15:14:40.913Z,3.73
2023-03-07T15:17:14.282Z,2.60
2023-03-07T15:20:00.154Z,2.93
2023-03-07T15:22:32.052Z,3.70
2023-03-07T15:24:59.387Z,2.73
2023-03-07T15:27:31.562Z,2.93
2023-03-07T15:30:00.617Z,3.40
2023-03-07T15:32:33.186Z,2.27
2023-03-07T15:35:09.123Z,1.73
2023-03-07T15:37:50.755Z,4.20
2023-03-07T15:40:34.549Z,3.17
2023-03-07T15:43:04.840Z,3.53
2023-03-07T15:45:38.428Z,2.23
2023-03-07T15:48:27.327Z,4.53
2023-03-07T15:50:56.807Z,3.13
2023-03-07T15:53:30.594Z,2.67
2023-03-07T15:56:03.738Z,3.17
2023-03-07T15:58:31.245Z,2.87
2023-03-07T16:01:27.626Z,3.93
2023-03-07T16:03:57.102Z,4.10
2023-03-07T16:06:33.156Z,4.97
2023-03-07T16:09:00.043Z,3.33
2023-03-07T16:11:26.816Z,4.73
2023-03-07T16:13:53.607Z,4.97
2023-03-07T16:16:23.232Z,4.40
2023-03-07T16:18:51.032Z,4.40
2023-03-07T16:21:18.406Z,3.83
2023-03-07T16:23:46.152Z,3.27
2023-03-07T16:26:23.101Z,3.53
2023-03-07T16:28:50.716Z,2.43
2023-03-07T16:31:18.298Z,2.93
2023-03-07T16:33:46.291Z,2.57
2023-03-07T16:36:14.248Z,3.30
2023-03-07T16:38:41.442Z,2.10
2023-03-07T16:41:21.929Z,2.40
2023-03-07T16:43:57.334Z,2.70
2023-03-07T16:46:24.513Z,1.97
2023-03-07T16:48:51.372Z,2.37
2023-03-07T16:51:21.158Z,2.40
2023-03-07T16:53:49.759Z,2.43
2023-03-07T16:56:29.305Z,3.03
2023-03-07T16:58:56.801Z,5.30
2023-03-07T17:01:23.517Z,6.50
2023-03-07T17:03:50.224Z,3.53
2023-03-07T17:06:17.748Z,2.80
2023-03-07T17:08:45.424Z,2.73
2023-03-07T17:11:20.184Z,3.53
2023-03-07T17:13:48.645Z,3.17
2023-03-07T17:16:17.051Z,3.40
2023-03-07T17:18:44.594Z,3.30
2023-03-07T17:21:17.679Z,5.73
2023-03-07T17:23:45.140Z,4.30
2023-03-07T17:26:27.928Z,3.90
2023-03-07T17:28:55.687Z,4.03
2023-03-07T17:31:22.558Z,5.50
2023-03-07T17:33:49.947Z,4.87
2023-03-07T17:36:16.766Z,4.10
2023-03-07T17:38:43.549Z,4.03
2023-03-07T17:41:10.350Z,4.87
2023-03-07T17:43:36.986Z,4.93
2023-03-07T17:46:08.652Z,3.83
2023-03-07T17:48:35.761Z,4.97
2023-03-07T17:51:09.535Z,6.30
2023-03-07T17:53:37.442Z,6.57
2023-03-07T17:56:08.909Z,6.50
2023-03-07T17:58:35.763Z,6.73
2023-03-07T18:01:02.448Z,7.47
2023-03-07T18:03:29.153Z,8.87
2023-03-07T18:05:56.442Z,8.00
2023-03-07T18:08:23.210Z,7.73
2023-03-07T18:10:50.038Z,7.20
2023-03-07T18:13:16.992Z,6.30
2023-03-07T18:15:47.471Z,6.87
2023-03-07T18:18:14.507Z,6.47
2023-03-07T18:20:41.243Z,8.27
2023-03-07T18:23:07.944Z,9.80
2023-03-07T18:25:34.740Z,9.83
2023-03-07T18:28:02.389Z,13.23
2023-03-07T18:30:29.244Z,10.90
2023-03-07T18:32:56.108Z,13.33
2023-03-07T18:35:23.531Z,14.53
2023-03-07T18:37:50.551Z,10.40
2023-03-07T18:40:20.411Z,10.80
2023-03-07T18:42:47.203Z,10.47
2023-03-07T18:45:14.072Z,11.37
2023-03-07T18:47:40.894Z,11.07
2023-03-07T18:50:09.277Z,10.30
2023-03-07T18:52:36.048Z,10.37
2023-03-07T18:55:03.004Z,8.10
2023-03-07T18:57:29.804Z,7.03
2023-03-07T18:59:56.522Z,6.10
2023-03-07T19:02:23.414Z,6.80
2023-03-07T19:04:50.274Z,7.53
2023-03-07T19:07:16.977Z,6.17
2023-03-07T19:09:45.007Z,8.93
2023-03-07T19:12:12.806Z,9.97
2023-03-07T19:14:39.537Z,10.50
2023-03-07T19:17:06.273Z,8.70
2023-03-07T19:19:35.785Z,11.47
2023-03-07T19:22:02.635Z,6.00
2023-03-07T19:24:30.170Z,5.17
2023-03-07T19:26:57.792Z,4.73
2023-03-07T19:29:24.501Z,7.63
2023-03-07T19:31:51.289Z,8.53
2023-03-07T19:34:17.997Z,7.23
2023-03-07T19:36:44.762Z,6.27
2023-03-07T19:39:20.274Z,8.30
2023-03-07T19:41:50.212Z,7.07
2023-03-07T19:44:17.246Z,6.70
2023-03-07T19:46:46.493Z,6.47
2023-03-07T19:49:14.436Z,6.30
2023-03-07T19:51:41.439Z,6.27
2023-03-07T19:54:08.951Z,6.63
2023-03-07T19:56:35.770Z,6.47
2023-03-07T19:59:02.890Z,6.87
2023-03-07T20:01:30.039Z,6.57
2023-03-07T20:03:57.371Z,8.00
2023-03-07T20:06:29.753Z,8.93
2023-03-07T20:08:57.396Z,9.10
2023-03-07T20:11:29.555Z,9.33
2023-03-07T20:13:58.756Z,8.23
2023-03-07T20:16:29.030Z,6.97
2023-03-07T20:18:59.444Z,7.10
2023-03-07T20:21:28.725Z,7.17
2023-03-07T20:23:59.737Z,9.20
2023-03-07T20:26:32.102Z,7.30
2023-03-07T20:28:59.675Z,6.20
2023-03-07T20:31:26.464Z,7.67
2023-03-07T20:33:53.330Z,7.43
2023-03-07T20:36:25.821Z,8.43
2023-03-07T20:38:55.088Z,7.67
2023-03-07T20:41:24.883Z,8.83
2023-03-07T20:43:52.995Z,7.40
2023-03-07T20:46:21.438Z,10.80
2023-03-07T20:48:48.775Z,8.35
2023-03-07T20:51:19.070Z,9.75
2023-03-07T20:53:59.557Z,9.07
2023-03-07T20:56:28.157Z,11.30
2023-03-07T20:58:55.543Z,10.48
2023-03-07T21:01:24.221Z,12.05
2023-03-07T21:03:52.714Z,12.13
2023-03-07T21:06:20.433Z,13.52
2023-03-07T21:08:49.992Z,15.02
2023-03-07T21:11:18.706Z,13.93
2023-03-07T21:13:47.067Z,15.73
2023-03-07T21:16:16.044Z,15.37
2023-03-07T21:18:43.989Z,15.07
2023-03-07T21:21:16.288Z,16.33
2023-03-07T21:23:43.593Z,18.70
2023-03-07T21:26:14.737Z,16.63
2023-03-07T21:28:41.641Z,16.53
2023-03-07T21:31:16.082Z,16.97
2023-03-07T21:33:44.816Z,20.20
2023-03-07T21:36:14.388Z,15.50
2023-03-07T21:38:41.697Z,15.37
2023-03-07T21:41:09.016Z,16.37
2023-03-07T21:43:36.109Z,16.67
2023-03-07T21:46:05.119Z,16.37
2023-03-07T21:48:33.518Z,16.90
2023-03-07T21:51:00.551Z,18.97
2023-03-07T21:53:27.705Z,18.03
2023-03-07T21:55:57.990Z,18.30
2023-03-07T21:58:25.143Z,21.73
2023-03-07T22:00:52.134Z,20.73
2023-03-07T22:03:19.354Z,21.83
2023-03-07T22:05:46.451Z,20.07
2023-03-07T22:08:13.390Z,18.47
2023-03-07T22:10:40.046Z,20.67
2023-03-07T22:13:07.035Z,21.50
2023-03-07T22:15:34.101Z,23.05
2023-03-07T22:18:00.942Z,22.10
2023-03-07T22:20:27.779Z,23.07
2023-03-07T22:22:54.645Z,23.30
2023-03-07T22:25:21.368Z,22.13
2023-03-07T22:27:48.048Z,24.30
2023-03-07T22:30:16.126Z,22.40
2023-03-07T22:32:46.870Z,21.00
2023-03-07T22:35:13.713Z,24.93
2023-03-07T22:37:41.946Z,21.27
2023-03-07T22:40:09.400Z,20.03
2023-03-07T22:42:36.225Z,25.17
2023-03-07T22:45:03.012Z,21.47
2023-03-07T22:47:31.408Z,21.08
2023-03-07T22:49:58.172Z,22.23
2023-03-07T22:52:24.998Z,21.57
2023-03-07T22:54:54.286Z,21.67
2023-03-07T22:57:23.687Z,21.07
2023-03-07T22:59:51.651Z,22.88
2023-03-07T23:02:26.541Z,22.97
2023-03-07T23:04:54.349Z,20.83
2023-03-07T23:07:21.040Z,24.87
2023-03-07T23:09:47.900Z,22.07
2023-03-07T23:12:14.702Z,22.20
2023-03-07T23:14:41.879Z,22.53
2023-03-07T23:17:08.478Z,21.40
2023-03-07T23:19:35.364Z,24.30
2023-03-07T23:22:02.195Z,24.07
2023-03-07T23:24:29.158Z,22.83
2023-03-07T23:26:56.304Z,22.73
2023-03-07T23:29:26.483Z,22.60
2023-03-07T23:32:00.061Z,23.50
2023-03-07T23:34:39.369Z,20.90
2023-03-07T23:37:06.526Z,23.05
2023-03-07T23:39:33.406Z,24.17
2023-03-07T23:42:00.237Z,24.60
2023-03-07T23:44:27.208Z,22.70
2023-03-07T23:46:54.589Z,21.53
2023-03-07T23:49:21.609Z,21.95
2023-03-07T23:51:48.753Z,23.93
2023-03-07T23:54:17.433Z,21.83
2023-03-07T23:56:44.879Z,23.23
2023-03-07T23:59:12.451Z,21.20
